sensor_id;sensor_type;location;lat;lon;timestamp;pressure;altitude;pressure_sealevel;temperature;humidity
64632;BME280;58358;50.936;0.246;2023-01-25T00:01:08;103135.64;;;2.39;67.44
64632;BME280;58358;50.936;0.246;2023-01-25T00:03:33;103133.87;;;3.67;66.40
64632;BME280;58358;50.936;0.246;2023-01-25T00:05:59;103129.45;;;3.64;66.97
64632;BME280;58358;50.936;0.246;2023-01-25T00:08:25;103128.26;;;2.46;66.70
64632;BME280;58358;50.936;0.246;2023-01-25T00:10:50;103122.41;;;3.32;67.93
64632;BME280;58358;50.936;0.246;2023-01-25T00:13:15;103120.89;;;2.91;68.60
64632;BME280;58358;50.936;0.246;2023-01-25T00:15:41;103120.41;;;2.18;71.42
64632;BME280;58358;50.936;0.246;2023-01-25T00:18:06;103118.76;;;1.95;74.28
64632;BME280;58358;50.936;0.246;2023-01-25T00:20:32;103118.11;;;1.29;76.76
64632;BME280;58358;50.936;0.246;2023-01-25T00:22:57;103120.26;;;2.77;72.07
64632;BME280;58358;50.936;0.246;2023-01-25T00:25:23;103123.10;;;2.69;71.92
64632;BME280;58358;50.936;0.246;2023-01-25T00:27:48;103124.30;;;1.85;73.58
64632;BME280;58358;50.936;0.246;2023-01-25T00:30:14;103123.90;;;2.32;73.66
64632;BME280;58358;50.936;0.246;2023-01-25T00:32:47;103114.77;;;3.11;69.25
64632;BME280;58358;50.936;0.246;2023-01-25T00:35:10;103112.34;;;2.27;71.92
64632;BME280;58358;50.936;0.246;2023-01-25T00:37:36;103109.98;;;0.77;78.08
64632;BME280;58358;50.936;0.246;2023-01-25T00:39:55;103103.62;;;1.81;76.79
64632;BME280;58358;50.936;0.246;2023-01-25T00:42:21;103101.94;;;3.40;69.98
64632;BME280;58358;50.936;0.246;2023-01-25T00:44:46;103102.40;;;2.57;71.24
64632;BME280;58358;50.936;0.246;2023-01-25T00:47:12;103100.51;;;2.74;70.60
64632;BME280;58358;50.936;0.246;2023-01-25T00:49:37;103099.56;;;2.09;72.99
64632;BME280;58358;50.936;0.246;2023-01-25T00:52:01;103096.44;;;1.98;75.27
64632;BME280;58358;50.936;0.246;2023-01-25T00:54:27;103094.65;;;2.86;72.98
64632;BME280;58358;50.936;0.246;2023-01-25T00:56:52;103096.39;;;3.91;68.56
64632;BME280;58358;50.936;0.246;2023-01-25T00:59:18;103095.58;;;4.75;64.05
64632;BME280;58358;50.936;0.246;2023-01-25T01:01:43;103093.26;;;3.89;66.22
64632;BME280;58358;50.936;0.246;2023-01-25T01:04:09;103093.06;;;4.00;66.99
64632;BME280;58358;50.936;0.246;2023-01-25T01:06:35;103087.72;;;3.50;66.81
64632;BME280;58358;50.936;0.246;2023-01-25T01:08:59;103087.50;;;3.88;64.85
64632;BME280;58358;50.936;0.246;2023-01-25T01:11:25;103088.30;;;4.01;65.60
64632;BME280;58358;50.936;0.246;2023-01-25T01:13:51;103089.62;;;3.29;67.33
64632;BME280;58358;50.936;0.246;2023-01-25T01:16:16;103087.58;;;3.39;67.74
64632;BME280;58358;50.936;0.246;2023-01-25T01:18:43;103090.28;;;1.91;72.40
64632;BME280;58358;50.936;0.246;2023-01-25T01:21:08;103086.27;;;2.04;73.45
64632;BME280;58358;50.936;0.246;2023-01-25T01:23:34;103084.78;;;2.86;71.80
64632;BME280;58358;50.936;0.246;2023-01-25T01:25:59;103081.65;;;1.63;71.91
64632;BME280;58358;50.936;0.246;2023-01-25T01:28:24;103080.67;;;1.98;72.69
64632;BME280;58358;50.936;0.246;2023-01-25T01:30:49;103080.89;;;2.18;70.80
64632;BME280;58358;50.936;0.246;2023-01-25T01:33:15;103075.21;;;2.39;69.65
64632;BME280;58358;50.936;0.246;2023-01-25T01:35:41;103077.25;;;2.28;70.79
64632;BME280;58358;50.936;0.246;2023-01-25T01:38:06;103074.98;;;2.81;69.07
64632;BME280;58358;50.936;0.246;2023-01-25T01:40:32;103079.29;;;3.68;65.96
64632;BME280;58358;50.936;0.246;2023-01-25T01:42:59;103079.01;;;4.72;63.34
64632;BME280;58358;50.936;0.246;2023-01-25T01:47:48;103075.59;;;6.16;59.07
64632;BME280;58358;50.936;0.246;2023-01-25T01:50:17;103075.35;;;6.07;58.26
64632;BME280;58358;50.936;0.246;2023-01-25T01:52:39;103079.36;;;4.48;61.12
64632;BME280;58358;50.936;0.246;2023-01-25T01:55:07;103080.00;;;2.76;68.64
64632;BME280;58358;50.936;0.246;2023-01-25T01:57:33;103082.90;;;1.41;73.34
64632;BME280;58358;50.936;0.246;2023-01-25T01:59:59;103079.43;;;3.62;66.51
64632;BME280;58358;50.936;0.246;2023-01-25T02:02:22;103074.21;;;3.50;67.36
64632;BME280;58358;50.936;0.246;2023-01-25T02:04:47;103073.96;;;3.15;68.45
64632;BME280;58358;50.936;0.246;2023-01-25T02:07:18;103071.97;;;2.59;68.40
64632;BME280;58358;50.936;0.246;2023-01-25T02:09:37;103073.77;;;2.40;71.28
64632;BME280;58358;50.936;0.246;2023-01-25T02:12:04;103070.39;;;1.91;73.33
64632;BME280;58358;50.936;0.246;2023-01-25T02:14:29;103069.01;;;1.93;72.39
64632;BME280;58358;50.936;0.246;2023-01-25T02:16:54;103066.55;;;2.37;72.59
64632;BME280;58358;50.936;0.246;2023-01-25T02:19:28;103066.34;;;4.08;66.10
64632;BME280;58358;50.936;0.246;2023-01-25T02:21:46;103063.54;;;4.81;62.48
64632;BME280;58358;50.936;0.246;2023-01-25T02:24:15;103062.98;;;3.39;65.85
64632;BME280;58358;50.936;0.246;2023-01-25T02:26:36;103061.22;;;2.26;71.23
64632;BME280;58358;50.936;0.246;2023-01-25T02:29:04;103058.91;;;3.41;68.18
64632;BME280;58358;50.936;0.246;2023-01-25T02:31:27;103058.58;;;3.89;65.86
64632;BME280;58358;50.936;0.246;2023-01-25T02:33:53;103056.51;;;3.26;65.55
64632;BME280;58358;50.936;0.246;2023-01-25T02:36:21;103059.38;;;3.73;66.55
64632;BME280;58358;50.936;0.246;2023-01-25T02:38:47;103060.67;;;4.93;61.94
64632;BME280;58358;50.936;0.246;2023-01-25T02:41:12;103064.27;;;4.28;63.73
64632;BME280;58358;50.936;0.246;2023-01-25T02:43:34;103063.70;;;4.48;61.98
64632;BME280;58358;50.936;0.246;2023-01-25T02:46:06;103057.51;;;5.40;60.39
64632;BME280;58358;50.936;0.246;2023-01-25T02:48:25;103055.78;;;5.29;60.34
64632;BME280;58358;50.936;0.246;2023-01-25T02:50:50;103057.47;;;5.72;58.78
64632;BME280;58358;50.936;0.246;2023-01-25T02:53:16;103057.85;;;4.95;60.36
64632;BME280;58358;50.936;0.246;2023-01-25T02:55:41;103060.66;;;3.86;60.98
64632;BME280;58358;50.936;0.246;2023-01-25T02:58:06;103053.46;;;5.51;59.95
64632;BME280;58358;50.936;0.246;2023-01-25T03:00:31;103051.35;;;5.02;59.28
64632;BME280;58358;50.936;0.246;2023-01-25T03:02:56;103048.90;;;5.49;59.85
64632;BME280;58358;50.936;0.246;2023-01-25T03:05:22;103048.34;;;5.45;58.95
64632;BME280;58358;50.936;0.246;2023-01-25T03:07:47;103043.85;;;5.79;58.04
64632;BME280;58358;50.936;0.246;2023-01-25T03:10:13;103039.08;;;6.24;56.22
64632;BME280;58358;50.936;0.246;2023-01-25T03:12:38;103036.09;;;5.06;58.84
64632;BME280;58358;50.936;0.246;2023-01-25T03:15:05;103033.97;;;5.62;57.51
64632;BME280;58358;50.936;0.246;2023-01-25T03:17:29;103035.15;;;5.19;57.82
64632;BME280;58358;50.936;0.246;2023-01-25T03:19:55;103035.39;;;4.73;59.64
64632;BME280;58358;50.936;0.246;2023-01-25T03:22:20;103034.84;;;4.02;60.48
64632;BME280;58358;50.936;0.246;2023-01-25T03:24:45;103028.43;;;2.58;64.97
64632;BME280;58358;50.936;0.246;2023-01-25T03:27:11;103029.93;;;4.19;62.45
64632;BME280;58358;50.936;0.246;2023-01-25T03:29:36;103030.44;;;4.00;62.07
64632;BME280;58358;50.936;0.246;2023-01-25T03:32:01;103029.06;;;5.48;59.14
64632;BME280;58358;50.936;0.246;2023-01-25T03:34:27;103025.61;;;6.03;57.88
64632;BME280;58358;50.936;0.246;2023-01-25T03:36:52;103025.85;;;6.05;55.56
64632;BME280;58358;50.936;0.246;2023-01-25T03:39:18;103025.29;;;6.00;55.34
64632;BME280;58358;50.936;0.246;2023-01-25T03:41:44;103023.90;;;5.52;56.72
64632;BME280;58358;50.936;0.246;2023-01-25T03:44:11;103019.95;;;5.31;57.77
64632;BME280;58358;50.936;0.246;2023-01-25T03:46:35;103018.86;;;4.87;57.30
64632;BME280;58358;50.936;0.246;2023-01-25T03:49:01;103024.82;;;4.08;59.97
64632;BME280;58358;50.936;0.246;2023-01-25T03:51:26;103024.98;;;3.78;62.92
64632;BME280;58358;50.936;0.246;2023-01-25T03:53:51;103020.17;;;4.44;58.04
64632;BME280;58358;50.936;0.246;2023-01-25T03:56:16;103023.80;;;3.67;60.47
64632;BME280;58358;50.936;0.246;2023-01-25T03:58:41;103016.27;;;4.77;59.49
64632;BME280;58358;50.936;0.246;2023-01-25T04:01:07;103016.73;;;5.02;57.60
64632;BME280;58358;50.936;0.246;2023-01-25T04:03:33;103014.20;;;4.45;57.63
64632;BME280;58358;50.936;0.246;2023-01-25T04:05:58;103011.63;;;4.93;57.82
64632;BME280;58358;50.936;0.246;2023-01-25T04:08:24;103011.08;;;4.29;58.77
64632;BME280;58358;50.936;0.246;2023-01-25T04:10:50;103011.12;;;2.31;63.58
64632;BME280;58358;50.936;0.246;2023-01-25T04:13:15;103015.00;;;2.10;66.48
64632;BME280;58358;50.936;0.246;2023-01-25T04:15:40;103011.85;;;2.56;64.68
64632;BME280;58358;50.936;0.246;2023-01-25T04:18:06;103008.28;;;2.22;65.35
64632;BME280;58358;50.936;0.246;2023-01-25T04:20:32;103010.50;;;2.81;65.39
64632;BME280;58358;50.936;0.246;2023-01-25T04:22:57;103012.91;;;2.58;66.10
64632;BME280;58358;50.936;0.246;2023-01-25T04:25:23;103011.50;;;2.43;64.52
64632;BME280;58358;50.936;0.246;2023-01-25T04:27:49;103015.14;;;1.06;67.50
64632;BME280;58358;50.936;0.246;2023-01-25T04:30:14;103012.68;;;2.77;64.36
64632;BME280;58358;50.936;0.246;2023-01-25T04:32:39;103015.64;;;3.03;64.95
64632;BME280;58358;50.936;0.246;2023-01-25T04:35:05;103017.46;;;2.66;65.59
64632;BME280;58358;50.936;0.246;2023-01-25T04:37:30;103015.23;;;2.59;64.80
64632;BME280;58358;50.936;0.246;2023-01-25T04:39:56;103016.71;;;2.67;65.94
64632;BME280;58358;50.936;0.246;2023-01-25T04:42:21;103020.26;;;3.56;62.55
64632;BME280;58358;50.936;0.246;2023-01-25T04:44:47;103019.94;;;3.83;63.33
64632;BME280;58358;50.936;0.246;2023-01-25T04:47:13;103018.03;;;4.32;61.60
64632;BME280;58358;50.936;0.246;2023-01-25T04:49:38;103019.79;;;4.23;61.60
64632;BME280;58358;50.936;0.246;2023-01-25T04:52:03;103020.65;;;3.70;63.05
64632;BME280;58358;50.936;0.246;2023-01-25T04:54:28;103022.52;;;3.66;64.08
64632;BME280;58358;50.936;0.246;2023-01-25T04:56:53;103019.38;;;3.48;64.24
64632;BME280;58358;50.936;0.246;2023-01-25T04:59:19;103016.23;;;2.04;67.46
64632;BME280;58358;50.936;0.246;2023-01-25T05:01:44;103016.18;;;2.06;69.04
64632;BME280;58358;50.936;0.246;2023-01-25T05:04:10;103015.47;;;1.99;69.29
64632;BME280;58358;50.936;0.246;2023-01-25T05:06:35;103018.59;;;2.44;68.35
64632;BME280;58358;50.936;0.246;2023-01-25T05:09:00;103016.23;;;3.48;65.55
64632;BME280;58358;50.936;0.246;2023-01-25T05:11:25;103013.09;;;3.34;65.38
64632;BME280;58358;50.936;0.246;2023-01-25T05:13:50;103011.44;;;3.72;64.66
64632;BME280;58358;50.936;0.246;2023-01-25T05:16:16;103014.29;;;3.58;63.93
64632;BME280;58358;50.936;0.246;2023-01-25T05:18:41;103010.83;;;3.39;64.31
64632;BME280;58358;50.936;0.246;2023-01-25T05:21:06;103013.50;;;2.12;67.09
64632;BME280;58358;50.936;0.246;2023-01-25T05:23:32;103011.01;;;2.26;68.87
64632;BME280;58358;50.936;0.246;2023-01-25T05:25:58;103008.47;;;1.83;68.41
64632;BME280;58358;50.936;0.246;2023-01-25T05:28:23;103007.12;;;1.96;68.53
64632;BME280;58358;50.936;0.246;2023-01-25T05:30:49;103007.97;;;2.07;68.66
64632;BME280;58358;50.936;0.246;2023-01-25T05:33:14;103006.49;;;3.21;65.55
64632;BME280;58358;50.936;0.246;2023-01-25T05:35:40;103006.23;;;3.48;64.75
64632;BME280;58358;50.936;0.246;2023-01-25T05:38:05;103006.50;;;2.83;66.19
64632;BME280;58358;50.936;0.246;2023-01-25T05:40:31;103008.66;;;2.00;68.66
64632;BME280;58358;50.936;0.246;2023-01-25T05:42:57;103007.24;;;0.50;73.24
64632;BME280;58358;50.936;0.246;2023-01-25T05:45:21;103010.13;;;0.79;76.51
64632;BME280;58358;50.936;0.246;2023-01-25T05:47:46;103005.83;;;1.00;76.19
64632;BME280;58358;50.936;0.246;2023-01-25T05:50:12;103003.21;;;1.51;72.45
64632;BME280;58358;50.936;0.246;2023-01-25T05:52:37;102999.77;;;1.22;72.69
64632;BME280;58358;50.936;0.246;2023-01-25T05:55:04;102996.74;;;1.28;72.26
64632;BME280;58358;50.936;0.246;2023-01-25T05:57:28;102995.66;;;0.67;73.66
64632;BME280;58358;50.936;0.246;2023-01-25T05:59:54;102992.39;;;2.40;68.94
64632;BME280;58358;50.936;0.246;2023-01-25T06:02:19;102992.12;;;3.56;66.08
64632;BME280;58358;50.936;0.246;2023-01-25T06:04:44;102997.17;;;3.55;64.65
64632;BME280;58358;50.936;0.246;2023-01-25T06:07:10;102992.41;;;2.49;66.27
64632;BME280;58358;50.936;0.246;2023-01-25T06:09:35;102996.65;;;1.49;70.52
64632;BME280;58358;50.936;0.246;2023-01-25T06:12:00;102996.37;;;2.35;68.46
64632;BME280;58358;50.936;0.246;2023-01-25T06:14:26;102998.43;;;1.14;71.17
64632;BME280;58358;50.936;0.246;2023-01-25T06:16:51;102997.28;;;2.29;69.90
64632;BME280;58358;50.936;0.246;2023-01-25T06:19:16;102997.56;;;1.37;71.21
64632;BME280;58358;50.936;0.246;2023-01-25T06:21:41;102994.44;;;1.28;73.45
64632;BME280;58358;50.936;0.246;2023-01-25T06:24:07;102999.30;;;-0.61;80.25
64632;BME280;58358;50.936;0.246;2023-01-25T06:26:32;103002.65;;;-0.28;80.45
64632;BME280;58358;50.936;0.246;2023-01-25T06:28:57;103004.69;;;-0.36;80.33
64632;BME280;58358;50.936;0.246;2023-01-25T06:31:22;102996.22;;;1.48;74.82
64632;BME280;58358;50.936;0.246;2023-01-25T06:33:49;103001.49;;;0.03;78.35
64632;BME280;58358;50.936;0.246;2023-01-25T06:36:16;103002.17;;;0.64;75.56
64632;BME280;58358;50.936;0.246;2023-01-25T06:38:40;103005.67;;;1.78;73.01
64632;BME280;58358;50.936;0.246;2023-01-25T06:41:06;103006.73;;;1.93;72.30
64632;BME280;58358;50.936;0.246;2023-01-25T06:43:31;103005.74;;;0.67;72.95
64632;BME280;58358;50.936;0.246;2023-01-25T06:45:57;103002.88;;;2.07;69.12
64632;BME280;58358;50.936;0.246;2023-01-25T06:48:21;103002.69;;;0.82;75.22
64632;BME280;58358;50.936;0.246;2023-01-25T06:50:53;103001.29;;;0.85;73.70
64632;BME280;58358;50.936;0.246;2023-01-25T06:53:12;103002.39;;;-1.31;80.32
64632;BME280;58358;50.936;0.246;2023-01-25T06:55:37;103002.47;;;0.99;75.98
64632;BME280;58358;50.936;0.246;2023-01-25T06:58:03;102996.94;;;0.75;75.73
64632;BME280;58358;50.936;0.246;2023-01-25T07:00:28;103001.68;;;-1.09;79.26
64632;BME280;58358;50.936;0.246;2023-01-25T07:02:53;102991.19;;;1.09;73.63
64632;BME280;58358;50.936;0.246;2023-01-25T07:05:18;102987.07;;;0.41;76.16
64632;BME280;58358;50.936;0.246;2023-01-25T07:07:44;102988.01;;;0.17;73.90
64632;BME280;58358;50.936;0.246;2023-01-25T07:10:10;102991.15;;;-0.09;77.47
64632;BME280;58358;50.936;0.246;2023-01-25T07:12:35;102989.20;;;1.34;72.32
64632;BME280;58358;50.936;0.246;2023-01-25T07:15:00;102991.10;;;0.53;71.73
64632;BME280;58358;50.936;0.246;2023-01-25T07:17:25;102985.77;;;0.98;71.78
64632;BME280;58358;50.936;0.246;2023-01-25T07:19:51;102981.06;;;2.21;69.08
64632;BME280;58358;50.936;0.246;2023-01-25T07:22:16;102982.92;;;1.47;70.21
64632;BME280;58358;50.936;0.246;2023-01-25T07:24:41;102984.41;;;0.94;72.54
64632;BME280;58358;50.936;0.246;2023-01-25T07:27:06;102985.77;;;2.09;70.84
64632;BME280;58358;50.936;0.246;2023-01-25T07:29:32;102982.92;;;1.46;72.17
64632;BME280;58358;50.936;0.246;2023-01-25T07:31:57;102989.10;;;-0.49;76.48
64632;BME280;58358;50.936;0.246;2023-01-25T07:34:23;102982.43;;;0.81;75.21
64632;BME280;58358;50.936;0.246;2023-01-25T07:36:49;102984.11;;;0.28;77.01
64632;BME280;58358;50.936;0.246;2023-01-25T07:39:14;102978.87;;;0.94;72.75
64632;BME280;58358;50.936;0.246;2023-01-25T07:41:40;102980.75;;;-0.26;77.46
64632;BME280;58358;50.936;0.246;2023-01-25T07:44:05;102970.85;;;1.16;72.86
64632;BME280;58358;50.936;0.246;2023-01-25T07:46:31;102969.30;;;0.68;74.55
64632;BME280;58358;50.936;0.246;2023-01-25T07:48:56;102974.03;;;0.23;76.07
64632;BME280;58358;50.936;0.246;2023-01-25T07:51:22;102965.98;;;0.70;75.24
64632;BME280;58358;50.936;0.246;2023-01-25T07:53:49;102967.37;;;-0.79;81.04
64632;BME280;58358;50.936;0.246;2023-01-25T07:56:12;102967.62;;;-0.64;81.11
64632;BME280;58358;50.936;0.246;2023-01-25T07:58:38;102963.21;;;0.09;79.25
64632;BME280;58358;50.936;0.246;2023-01-25T08:01:06;102960.00;;;0.11;76.70
64632;BME280;58358;50.936;0.246;2023-01-25T08:03:28;102953.81;;;1.07;74.14
64632;BME280;58358;50.936;0.246;2023-01-25T08:05:53;102949.31;;;0.65;74.81
64632;BME280;58358;50.936;0.246;2023-01-25T08:08:18;102948.95;;;0.53;74.06
64632;BME280;58358;50.936;0.246;2023-01-25T08:10:44;102950.90;;;0.51;74.78
64632;BME280;58358;50.936;0.246;2023-01-25T08:13:10;102949.39;;;1.04;73.35
64632;BME280;58358;50.936;0.246;2023-01-25T08:15:35;102950.21;;;0.74;72.33
64632;BME280;58358;50.936;0.246;2023-01-25T08:18:01;102953.36;;;-0.16;75.44
64632;BME280;58358;50.936;0.246;2023-01-25T08:20:26;102949.92;;;0.37;74.60
64632;BME280;58358;50.936;0.246;2023-01-25T08:22:51;102952.05;;;0.63;72.77
64632;BME280;58358;50.936;0.246;2023-01-25T08:25:17;102955.74;;;0.57;72.56
64632;BME280;58358;50.936;0.246;2023-01-25T08:27:42;102955.96;;;0.58;73.99
64632;BME280;58358;50.936;0.246;2023-01-25T08:30:09;102957.09;;;-0.43;73.09
64632;BME280;58358;50.936;0.246;2023-01-25T08:32:34;102958.07;;;-1.10;73.85
64632;BME280;58358;50.936;0.246;2023-01-25T08:34:59;102953.91;;;-0.95;76.37
64632;BME280;58358;50.936;0.246;2023-01-25T08:37:24;102949.18;;;0.23;74.14
64632;BME280;58358;50.936;0.246;2023-01-25T08:39:49;102945.43;;;-1.25;76.28
64632;BME280;58358;50.936;0.246;2023-01-25T08:42:15;102945.81;;;-1.07;78.85
64632;BME280;58358;50.936;0.246;2023-01-25T08:44:40;102944.40;;;-0.77;76.78
64632;BME280;58358;50.936;0.246;2023-01-25T08:47:05;102943.37;;;-0.15;74.49
64632;BME280;58358;50.936;0.246;2023-01-25T08:49:30;102940.15;;;-0.04;73.62
64632;BME280;58358;50.936;0.246;2023-01-25T08:51:55;102940.64;;;-0.18;74.59
64632;BME280;58358;50.936;0.246;2023-01-25T08:54:21;102933.45;;;0.44;71.80
64632;BME280;58358;50.936;0.246;2023-01-25T08:56:46;102937.46;;;0.87;69.48
64632;BME280;58358;50.936;0.246;2023-01-25T08:59:12;102939.86;;;-0.06;72.13
64632;BME280;58358;50.936;0.246;2023-01-25T09:01:38;102941.02;;;0.07;73.99
64632;BME280;58358;50.936;0.246;2023-01-25T09:04:03;102933.30;;;0.50;69.55
64632;BME280;58358;50.936;0.246;2023-01-25T09:06:29;102927.64;;;0.18;72.37
64632;BME280;58358;50.936;0.246;2023-01-25T09:08:54;102925.78;;;0.79;69.56
64632;BME280;58358;50.936;0.246;2023-01-25T09:11:21;102925.12;;;-1.54;76.06
64632;BME280;58358;50.936;0.246;2023-01-25T09:13:46;102918.38;;;0.28;71.46
64632;BME280;58358;50.936;0.246;2023-01-25T09:16:13;102914.06;;;-0.25;71.03
64632;BME280;58358;50.936;0.246;2023-01-25T09:18:37;102913.16;;;0.82;70.24
64632;BME280;58358;50.936;0.246;2023-01-25T09:21:05;102918.44;;;-0.09;74.60
64632;BME280;58358;50.936;0.246;2023-01-25T09:23:26;102913.88;;;-0.46;76.21
64632;BME280;58358;50.936;0.246;2023-01-25T09:25:56;102914.34;;;0.16;74.75
64632;BME280;58358;50.936;0.246;2023-01-25T09:28:17;102916.05;;;-0.39;76.95
64632;BME280;58358;50.936;0.246;2023-01-25T09:30:42;102907.81;;;0.50;73.72
64632;BME280;58358;50.936;0.246;2023-01-25T09:33:08;102903.03;;;0.64;73.08
64632;BME280;58358;50.936;0.246;2023-01-25T09:35:33;102902.89;;;0.65;72.59
64632;BME280;58358;50.936;0.246;2023-01-25T09:37:59;102902.57;;;1.04;71.25
64632;BME280;58358;50.936;0.246;2023-01-25T09:40:26;102899.29;;;0.70;71.17
64632;BME280;58358;50.936;0.246;2023-01-25T09:42:59;102893.86;;;0.76;70.82
64632;BME280;58358;50.936;0.246;2023-01-25T09:45:23;102891.03;;;2.60;65.21
64632;BME280;58358;50.936;0.246;2023-01-25T09:47:47;102887.69;;;1.64;67.01
64632;BME280;58358;50.936;0.246;2023-01-25T09:50:16;102882.52;;;0.76;69.65
64632;BME280;58358;50.936;0.246;2023-01-25T09:54:57;102878.79;;;2.56;66.12
64632;BME280;58358;50.936;0.246;2023-01-25T09:57:27;102874.07;;;2.44;65.44
64632;BME280;58358;50.936;0.246;2023-01-25T09:59:49;102873.66;;;2.70;64.35
64632;BME280;58358;50.936;0.246;2023-01-25T10:02:24;102869.12;;;2.81;63.02
64632;BME280;58358;50.936;0.246;2023-01-25T10:04:41;102863.03;;;2.99;62.89
64632;BME280;58358;50.936;0.246;2023-01-25T10:07:10;102852.92;;;2.05;65.57
64632;BME280;58358;50.936;0.246;2023-01-25T10:09:38;102855.44;;;0.52;70.49
64632;BME280;58358;50.936;0.246;2023-01-25T10:12:03;102860.78;;;-1.52;79.51
64632;BME280;58358;50.936;0.246;2023-01-25T10:14:20;102855.95;;;-1.28;81.13
64632;BME280;58358;50.936;0.246;2023-01-25T10:16:56;102851.40;;;-0.55;75.85
64632;BME280;58358;50.936;0.246;2023-01-25T10:19:17;102843.30;;;0.48;74.36
64632;BME280;58358;50.936;0.246;2023-01-25T10:21:39;102836.40;;;0.36;73.10
64632;BME280;58358;50.936;0.246;2023-01-25T10:26:27;102841.62;;;1.30;69.45
64632;BME280;58358;50.936;0.246;2023-01-25T10:28:56;102842.23;;;0.15;72.69
64632;BME280;58358;50.936;0.246;2023-01-25T10:31:19;102844.69;;;-1.89;79.05
64632;BME280;58358;50.936;0.246;2023-01-25T10:33:44;102837.80;;;-0.78;74.64
64632;BME280;58358;50.936;0.246;2023-01-25T10:36:12;102833.74;;;0.56;76.29
64632;BME280;58358;50.936;0.246;2023-01-25T10:38:37;102832.68;;;0.98;71.84
64632;BME280;58358;50.936;0.246;2023-01-25T10:41:02;102832.77;;;-1.55;78.10
64632;BME280;58358;50.936;0.246;2023-01-25T10:43:25;102830.44;;;-0.04;75.77
64632;BME280;58358;50.936;0.246;2023-01-25T10:45:50;102836.10;;;-1.80;79.22
64632;BME280;58358;50.936;0.246;2023-01-25T10:48:18;102827.49;;;0.24;74.95
64632;BME280;58358;50.936;0.246;2023-01-25T10:50:43;102825.36;;;0.74;75.31
64632;BME280;58358;50.936;0.246;2023-01-25T10:53:22;102821.31;;;0.72;75.29
64632;BME280;58358;50.936;0.246;2023-01-25T10:55:32;102817.23;;;0.53;75.87
64632;BME280;58358;50.936;0.246;2023-01-25T10:57:57;102817.51;;;1.25;74.35
64632;BME280;58358;50.936;0.246;2023-01-25T11:00:26;102814.56;;;0.70;72.70
64632;BME280;58358;50.936;0.246;2023-01-25T11:02:48;102811.71;;;0.34;74.64
64632;BME280;58358;50.936;0.246;2023-01-25T11:05:26;102803.65;;;1.56;70.97
64632;BME280;58358;50.936;0.246;2023-01-25T11:07:39;102800.12;;;1.67;70.81
64632;BME280;58358;50.936;0.246;2023-01-25T11:12:30;102798.42;;;0.43;77.79
64632;BME280;58358;50.936;0.246;2023-01-25T11:14:56;102790.24;;;0.96;75.54
64632;BME280;58358;50.936;0.246;2023-01-25T11:17:24;102788.96;;;1.36;73.83
64632;BME280;58358;50.936;0.246;2023-01-25T11:19:47;102784.60;;;0.75;72.70
64632;BME280;58358;50.936;0.246;2023-01-25T11:22:21;102783.23;;;1.15;73.82
64632;BME280;58358;50.936;0.246;2023-01-25T11:24:38;102774.41;;;1.15;73.45
64632;BME280;58358;50.936;0.246;2023-01-25T11:27:18;102768.69;;;-1.40;82.19
64632;BME280;58358;50.936;0.246;2023-01-25T11:29:29;102760.41;;;0.88;78.54
64632;BME280;58358;50.936;0.246;2023-01-25T11:31:55;102761.79;;;0.40;79.54
64632;BME280;58358;50.936;0.246;2023-01-25T11:34:25;102758.91;;;-0.18;78.58
64632;BME280;58358;50.936;0.246;2023-01-25T11:37:01;102749.63;;;0.64;75.70
64632;BME280;58358;50.936;0.246;2023-01-25T11:39:20;102748.91;;;1.56;75.45
64632;BME280;58358;50.936;0.246;2023-01-25T11:41:47;102746.05;;;1.53;73.15
64632;BME280;58358;50.936;0.246;2023-01-25T11:46:38;102744.73;;;-0.27;78.77
64632;BME280;58358;50.936;0.246;2023-01-25T11:49:05;102739.05;;;0.83;77.27
64632;BME280;58358;50.936;0.246;2023-01-25T11:51:24;102732.62;;;0.82;75.59
64632;BME280;58358;50.936;0.246;2023-01-25T11:53:54;102727.54;;;-0.40;76.19
64632;BME280;58358;50.936;0.246;2023-01-25T11:56:14;102721.36;;;1.81;71.68
64632;BME280;58358;50.936;0.246;2023-01-25T11:58:47;102720.08;;;0.02;76.71
64632;BME280;58358;50.936;0.246;2023-01-25T12:01:10;102711.42;;;0.92;76.33
64632;BME280;58358;50.936;0.246;2023-01-25T12:03:38;102703.54;;;1.10;74.58
64632;BME280;58358;50.936;0.246;2023-01-25T12:05:57;102696.03;;;0.64;77.22
64632;BME280;58358;50.936;0.246;2023-01-25T12:08:33;102694.44;;;-0.81;79.60
64632;BME280;58358;50.936;0.246;2023-01-25T12:10:48;102690.53;;;0.26;79.52
64632;BME280;58358;50.936;0.246;2023-01-25T12:13:13;102684.27;;;1.73;73.75
64632;BME280;58358;50.936;0.246;2023-01-25T12:15:46;102673.99;;;0.69;76.45
64632;BME280;58358;50.936;0.246;2023-01-25T12:18:10;102669.50;;;1.10;74.76
64632;BME280;58358;50.936;0.246;2023-01-25T12:20:37;102664.86;;;0.30;78.30
64632;BME280;58358;50.936;0.246;2023-01-25T12:25:22;102652.84;;;1.14;76.77
64632;BME280;58358;50.936;0.246;2023-01-25T12:27:48;102640.04;;;0.64;76.44
64632;BME280;58358;50.936;0.246;2023-01-25T12:30:12;102637.74;;;-0.03;77.05
64632;BME280;58358;50.936;0.246;2023-01-25T12:32:34;102634.71;;;2.21;73.07
64632;BME280;58358;50.936;0.246;2023-01-25T12:35:03;102633.92;;;1.52;74.57
64632;BME280;58358;50.936;0.246;2023-01-25T12:37:27;102629.90;;;1.47;74.31
64632;BME280;58358;50.936;0.246;2023-01-25T12:39:51;102623.51;;;1.18;76.00
64632;BME280;58358;50.936;0.246;2023-01-25T12:42:17;102619.59;;;1.22;74.28
64632;BME280;58358;50.936;0.246;2023-01-25T12:44:40;102618.63;;;1.71;73.56
64632;BME280;58358;50.936;0.246;2023-01-25T12:47:10;102612.91;;;0.62;77.41
64632;BME280;58358;50.936;0.246;2023-01-25T12:49:35;102621.41;;;-0.78;81.85
64632;BME280;58358;50.936;0.246;2023-01-25T12:51:56;102612.31;;;0.88;77.52
64632;BME280;58358;50.936;0.246;2023-01-25T12:54:27;102615.95;;;0.57;79.50
64632;BME280;58358;50.936;0.246;2023-01-25T12:56:53;102617.47;;;1.61;75.10
64632;BME280;58358;50.936;0.246;2023-01-25T12:59:16;102613.31;;;0.77;78.43
64632;BME280;58358;50.936;0.246;2023-01-25T13:01:44;102608.26;;;0.26;80.45
64632;BME280;58358;50.936;0.246;2023-01-25T13:06:36;102605.76;;;-0.44;78.64